Time;durP1;ratioP1;P1;durP2;ratioP2;P2;SDS_P1;SDS_P2;PMS_P1;PMS_P2;Temp;Humidity;BMP_temperature;BMP_pressure;BME280_temperature;BME280_humidity;BME280_pressure;Samples;Min_cycle;Max_cycle;Signal;HPM_P1;HPM_P2
2021/03/23 00:02:18;;;;;;;23.77;10.37;;;;;;;5.04;81.95;96925.09;5035708;28;20538;-88
2021/03/23 00:04:45;;;;;;;19.13;10.83;;;;;;;4.93;81.59;96928.50;5035643;28;20459;-87
2021/03/23 00:07:11;;;;;;;23.63;12.80;;;;;;;4.96;82.16;96926.78;5034070;28;20511;-87
2021/03/23 00:09:37;;;;;;;21.70;9.57;;;;;;;4.92;82.34;96929.69;5035549;28;20501;-87
2021/03/23 00:12:05;;;;;;;19.33;10.50;;;;;;;5.01;81.68;96942.09;5035516;28;20593;-87
2021/03/23 00:14:31;;;;;;;19.07;10.70;;;;;;;4.84;82.32;96931.41;5035309;28;20410;-86
2021/03/23 00:16:57;;;;;;;21.20;10.70;;;;;;;4.85;82.41;96933.59;5034867;28;20437;-87
2021/03/23 00:19:24;;;;;;;18.97;11.03;;;;;;;4.90;82.22;96940.16;5034974;28;20463;-86
2021/03/23 00:21:50;;;;;;;23.27;11.37;;;;;;;5.00;81.73;96933.34;5035414;28;20446;-87
2021/03/23 00:24:16;;;;;;;22.47;10.50;;;;;;;4.98;81.70;96930.41;5037831;28;20932;-87
2021/03/23 00:26:42;;;;;;;22.20;11.70;;;;;;;5.02;81.97;96930.19;5039571;28;20449;-86
2021/03/23 00:29:08;;;;;;;25.67;10.33;;;;;;;4.90;81.81;96932.13;5038563;28;20496;-87
2021/03/23 00:31:35;;;;;;;18.07;9.70;;;;;;;4.86;82.01;96924.38;5039214;28;20518;-87
2021/03/23 00:34:03;;;;;;;23.47;10.87;;;;;;;4.89;82.32;96925.31;5039516;28;20510;-87
2021/03/23 00:36:36;;;;;;;25.17;11.00;;;;;;;5.03;82.06;96927.03;5038886;28;20521;-84
2021/03/23 00:39:06;;;;;;;21.47;10.63;;;;;;;5.01;81.67;96934.78;5039139;28;20463;-85
2021/03/23 00:41:35;;;;;;;27.80;11.40;;;;;;;4.91;81.89;96936.28;5040003;28;20817;-84
2021/03/23 00:44:04;;;;;;;18.83;10.73;;;;;;;4.93;82.22;96936.50;5039647;28;20983;-85
2021/03/23 00:46:30;;;;;;;22.97;11.60;;;;;;;4.97;81.92;96928.25;5039325;28;20517;-83
2021/03/23 00:48:56;;;;;;;18.03;9.77;;;;;;;4.85;82.76;96933.59;5038636;28;20461;-84
2021/03/23 00:51:22;;;;;;;22.27;11.63;;;;;;;4.77;83.22;96929.97;5038344;28;20420;-84
2021/03/23 00:53:49;;;;;;;20.70;12.37;;;;;;;4.88;83.08;96931.19;5038379;28;20935;-86
2021/03/23 00:56:15;;;;;;;30.17;10.33;;;;;;;4.82;82.83;96929.22;5038467;28;20442;-85
2021/03/23 00:58:41;;;;;;;24.30;10.60;;;;;;;5.00;82.53;96927.28;5038344;28;20433;-86
2021/03/23 01:01:07;;;;;;;22.17;12.07;;;;;;;4.94;82.56;96924.63;5038281;28;20499;-85
2021/03/23 01:03:33;;;;;;;25.27;11.73;;;;;;;4.87;83.35;96925.09;5038071;28;20487;-85
2021/03/23 01:05:59;;;;;;;21.37;11.20;;;;;;;4.95;82.87;96922.66;5038396;28;20432;-85
2021/03/23 01:08:25;;;;;;;17.63;10.80;;;;;;;4.98;82.93;96927.75;5038149;28;21078;-85
2021/03/23 01:10:52;;;;;;;20.60;9.63;;;;;;;4.93;82.98;96925.81;5037843;28;20534;-85
2021/03/23 01:13:18;;;;;;;24.67;12.70;;;;;;;4.96;83.11;96930.19;5038066;28;20534;-85
2021/03/23 01:15:44;;;;;;;23.07;11.47;;;;;;;4.95;82.73;96925.34;5043271;28;20458;-85
2021/03/23 01:18:11;;;;;;;30.60;12.07;;;;;;;4.92;82.64;96918.31;5060423;28;20445;-84
2021/03/23 01:20:37;;;;;;;24.60;12.37;;;;;;;4.83;83.74;96924.59;5060352;28;20426;-85
2021/03/23 01:23:03;;;;;;;21.40;10.23;;;;;;;4.96;83.09;96927.50;5060354;28;20456;-86
2021/03/23 01:25:30;;;;;;;23.73;11.70;;;;;;;4.92;83.33;96921.69;5051233;28;20446;-87
2021/03/23 01:27:57;;;;;;;24.40;11.60;;;;;;;4.90;83.58;96929.47;5038195;28;20480;-86
2021/03/23 01:30:25;;;;;;;26.63;11.77;;;;;;;4.88;83.64;96923.16;5038783;28;20481;-86
2021/03/23 01:32:52;;;;;;;18.90;11.67;;;;;;;5.01;83.09;96928.75;5038121;28;20510;-87
2021/03/23 01:35:21;;;;;;;23.67;12.40;;;;;;;5.00;83.28;96927.28;5037915;28;20422;-86
2021/03/23 01:37:47;;;;;;;24.90;12.77;;;;;;;4.92;83.06;96927.03;5038264;28;20495;-87
2021/03/23 01:40:16;;;;;;;24.00;11.83;;;;;;;4.88;84.19;96931.19;5038638;28;20849;-86
2021/03/23 01:42:45;;;;;;;29.07;11.77;;;;;;;4.92;84.21;96927.03;5038148;28;20443;-87
2021/03/23 01:45:34;;;;;;;27.37;10.50;;;;;;;4.94;84.24;96924.63;5037682;28;20406;-87
2021/03/23 01:48:03;;;;;;;24.40;12.53;;;;;;;4.79;84.49;96924.84;5033582;28;20633;-87
2021/03/23 01:50:30;;;;;;;22.40;11.60;;;;;;;4.86;84.66;96920.97;5037753;28;20451;-87
2021/03/23 01:53:02;;;;;;;25.23;11.87;;;;;;;4.93;84.27;96920.47;5037639;28;20414;-86
2021/03/23 01:55:31;;;;;;;27.03;14.20;;;;;;;4.80;84.57;96925.59;5037859;28;20438;-85
2021/03/23 01:57:57;;;;;;;22.03;10.97;;;;;;;4.91;84.55;96922.19;5037998;28;21011;-85
2021/03/23 02:00:23;;;;;;;22.13;13.20;;;;;;;5.01;84.07;96920.72;5038310;28;20671;-85
2021/03/23 02:02:50;;;;;;;24.47;13.53;;;;;;;4.85;84.96;96914.16;5059416;28;20494;-85
2021/03/23 02:05:24;;;;;;;26.20;12.87;;;;;;;4.92;85.08;96921.69;5059490;28;20410;-87
2021/03/23 02:07:51;;;;;;;34.60;16.20;;;;;;;4.79;85.43;96916.13;5037137;28;20457;-84
2021/03/23 02:10:18;;;;;;;31.00;15.63;;;;;;;4.92;85.81;96910.28;5017908;28;21018;-84
2021/03/23 02:12:46;;;;;;;39.00;16.37;;;;;;;4.92;85.64;96915.63;5017568;28;20451;-85
2021/03/23 02:15:14;;;;;;;31.33;15.27;;;;;;;5.00;85.45;96916.56;5017833;28;20475;-84
2021/03/23 02:17:40;;;;;;;29.67;16.73;;;;;;;5.02;85.16;96908.78;5017576;28;20488;-84
2021/03/23 02:20:12;;;;;;;28.03;15.47;;;;;;;5.03;85.66;96908.31;5017769;28;20996;-84
2021/03/23 02:22:40;;;;;;;30.77;15.00;;;;;;;4.99;85.60;96913.16;5017567;28;20496;-86
2021/03/23 02:25:11;;;;;;;34.33;17.33;;;;;;;4.95;85.67;96915.34;5017926;28;20480;-86
2021/03/23 02:27:37;;;;;;;30.93;16.60;;;;;;;4.90;85.91;96913.44;5017990;28;20461;-86
2021/03/23 02:30:07;;;;;;;30.43;17.67;;;;;;;5.07;86.04;96906.13;5017184;28;20723;-86
2021/03/23 02:32:33;;;;;;;33.93;18.70;;;;;;;4.84;86.71;96915.38;5018194;28;20449;-86
2021/03/23 02:34:59;;;;;;;40.07;18.43;;;;;;;4.79;86.93;96916.13;5017621;28;20555;-86
2021/03/23 02:37:25;;;;;;;44.60;21.60;;;;;;;4.85;87.52;96914.16;5017191;28;20532;-86
2021/03/23 02:39:52;;;;;;;44.57;20.60;;;;;;;4.89;86.93;96906.63;5017069;28;20980;-86
2021/03/23 02:42:18;;;;;;;42.57;20.30;;;;;;;4.86;87.06;96904.91;5017299;28;20531;-87
2021/03/23 02:44:47;;;;;;;37.33;19.80;;;;;;;4.82;87.45;96910.50;5016999;28;20423;-84
2021/03/23 02:47:14;;;;;;;48.60;22.50;;;;;;;4.92;86.74;96908.31;5016337;28;20449;-86
2021/03/23 02:49:40;;;;;;;44.13;23.10;;;;;;;4.97;86.92;96910.25;5016637;28;20486;-85
2021/03/23 02:52:08;;;;;;;45.80;21.07;;;;;;;4.86;87.07;96907.59;5016985;28;20502;-83
2021/03/23 02:54:34;;;;;;;41.30;20.53;;;;;;;4.81;87.25;96903.00;5017004;28;20464;-85
2021/03/23 02:57:01;;;;;;;48.43;21.80;;;;;;;4.82;87.17;96909.81;5017524;28;20511;-84
2021/03/23 02:59:27;;;;;;;39.83;21.03;;;;;;;4.88;87.20;96901.78;5016853;28;20474;-86
2021/03/23 03:01:53;;;;;;;45.17;22.60;;;;;;;4.78;87.42;96901.28;5016401;28;21030;-86
2021/03/23 03:04:20;;;;;;;38.73;19.13;;;;;;;4.67;87.97;96907.38;5016651;28;20429;-87
2021/03/23 03:06:46;;;;;;;47.63;21.67;;;;;;;4.75;88.25;96902.25;5016936;28;20515;-86
2021/03/23 03:09:12;;;;;;;42.37;20.87;;;;;;;4.86;87.63;96902.25;5016971;28;20492;-86
2021/03/23 03:11:38;;;;;;;43.63;21.77;;;;;;;4.97;86.85;96896.16;5016564;28;20539;-86
2021/03/23 03:14:05;;;;;;;41.10;21.20;;;;;;;4.99;86.67;96899.06;5016765;28;20513;-86
2021/03/23 03:16:31;;;;;;;40.20;20.83;;;;;;;4.91;86.57;96898.13;5016263;28;20478;-87
2021/03/23 03:18:57;;;;;;;44.03;21.13;;;;;;;4.89;86.52;96893.25;5016380;28;20551;-86
2021/03/23 03:21:24;;;;;;;40.77;20.93;;;;;;;4.92;86.89;96900.28;5016417;28;20495;-87
2021/03/23 03:23:50;;;;;;;38.20;20.90;;;;;;;5.07;85.70;96892.75;5016256;28;20451;-87
2021/03/23 03:26:16;;;;;;;47.60;22.13;;;;;;;4.98;86.16;96895.66;5015974;28;20510;-86
2021/03/23 03:28:50;;;;;;;41.50;20.97;;;;;;;4.94;86.63;96897.88;5016340;28;20580;-86
2021/03/23 03:31:18;;;;;;;51.07;21.37;;;;;;;4.87;86.41;96903.72;5016334;28;20932;-86
2021/03/23 03:33:44;;;;;;;46.47;22.80;;;;;;;4.87;86.88;96898.38;5016123;28;20993;-85
2021/03/23 03:36:10;;;;;;;46.10;22.03;;;;;;;4.88;86.75;96899.09;5016305;28;20446;-85
2021/03/23 03:38:36;;;;;;;39.23;21.07;;;;;;;4.96;86.77;96898.09;5016568;28;20947;-84
2021/03/23 03:41:02;;;;;;;45.80;21.00;;;;;;;4.93;86.54;96906.38;5016273;28;21032;-85
2021/03/23 03:43:31;;;;;;;38.03;18.87;;;;;;;4.93;86.67;96904.44;5017633;28;20846;-85
2021/03/23 03:45:57;;;;;;;39.80;20.53;;;;;;;5.04;85.98;96895.66;5016329;28;20448;-85
2021/03/23 03:48:25;;;;;;;41.03;21.80;;;;;;;5.05;85.84;96900.50;5016328;28;20499;-86
2021/03/23 03:50:53;;;;;;;46.93;22.10;;;;;;;4.96;85.79;96903.44;5016102;28;20458;-85
2021/03/23 03:53:19;;;;;;;41.10;20.83;;;;;;;4.91;86.31;96906.88;5016198;28;20460;-86
2021/03/23 03:55:46;;;;;;;37.30;19.70;;;;;;;4.91;86.04;96906.88;5016209;28;20519;-85
2021/03/23 03:58:13;;;;;;;45.63;22.27;;;;;;;4.79;86.09;96900.09;5018847;28;20558;-85
2021/03/23 04:00:39;;;;;;;44.80;21.07;;;;;;;4.84;86.76;96910.03;5020957;28;20448;-85
2021/03/23 04:03:07;;;;;;;50.20;21.70;;;;;;;4.85;86.80;96895.47;5020848;28;20827;-84
2021/03/23 04:05:37;;;;;;;40.80;20.03;;;;;;;4.90;86.68;96896.66;5020843;28;20428;-84
2021/03/23 04:08:05;;;;;;;50.97;22.77;;;;;;;5.04;85.78;96906.38;5020616;28;20434;-84
2021/03/23 04:10:31;;;;;;;38.50;20.80;;;;;;;5.03;85.53;96912.94;5020851;28;20505;-85
2021/03/23 04:12:57;;;;;;;46.23;23.07;;;;;;;4.93;85.96;96906.38;5023374;28;20478;-84
2021/03/23 04:15:27;;;;;;;43.43;21.00;;;;;;;4.78;86.47;96910.03;5041745;28;20420;-86
2021/03/23 04:17:53;;;;;;;49.67;23.30;;;;;;;4.75;87.11;96918.31;5041783;28;20435;-86
2021/03/23 04:20:19;;;;;;;45.33;21.13;;;;;;;4.80;86.82;96917.56;5041486;28;20511;-85
2021/03/23 04:22:47;;;;;;;46.20;22.67;;;;;;;4.73;86.70;96915.41;5034076;28;20440;-88
2021/03/23 04:25:15;;;;;;;41.10;22.37;;;;;;;4.72;87.16;96920.00;5021569;28;20494;-86
2021/03/23 04:27:41;;;;;;;46.23;21.30;;;;;;;4.66;87.31;96921.22;5020673;28;20430;-85
2021/03/23 04:30:10;;;;;;;50.50;21.50;;;;;;;4.79;87.10;96918.78;5020974;28;20579;-85
2021/03/23 04:32:37;;;;;;;48.30;21.97;;;;;;;4.80;86.32;96920.97;5020679;28;20490;-86
2021/03/23 04:35:07;;;;;;;43.67;19.93;;;;;;;4.74;86.93;96927.53;5021709;28;20536;-86
2021/03/23 04:37:33;;;;;;;44.33;21.03;;;;;;;4.75;86.74;96923.66;5021141;28;20808;-86
2021/03/23 04:40:00;;;;;;;40.90;20.80;;;;;;;4.76;86.79;96931.16;5020485;28;20440;-86
2021/03/23 04:42:26;;;;;;;39.17;20.33;;;;;;;4.65;86.95;96936.53;5020304;28;20445;-86
2021/03/23 04:44:52;;;;;;;49.37;22.20;;;;;;;4.61;87.39;96935.28;5020015;28;20505;-85
2021/03/23 04:47:19;;;;;;;40.70;20.77;;;;;;;4.53;88.02;96932.41;5020549;28;20458;-86
2021/03/23 04:49:45;;;;;;;52.03;23.67;;;;;;;4.57;88.10;96938.22;5020554;28;20579;-86
2021/03/23 04:52:11;;;;;;;46.17;20.93;;;;;;;4.67;87.69;96938.69;5020449;28;20433;-86
2021/03/23 04:54:37;;;;;;;49.13;23.77;;;;;;;4.78;87.70;96933.38;5020307;28;20484;-86
2021/03/23 04:57:05;;;;;;;42.80;22.37;;;;;;;4.82;87.02;96933.88;5020245;28;20450;-87
2021/03/23 04:59:31;;;;;;;44.20;22.30;;;;;;;4.77;86.87;96935.31;5020886;28;20576;-87
2021/03/23 05:01:57;;;;;;;42.13;20.70;;;;;;;4.79;87.15;96938.22;5020935;28;20455;-84
2021/03/23 05:04:23;;;;;;;52.60;23.30;;;;;;;4.79;86.95;96946.22;5020304;28;20505;-85
2021/03/23 05:06:49;;;;;;;43.87;22.30;;;;;;;4.79;86.55;96942.84;5020306;28;20501;-84
2021/03/23 05:09:15;;;;;;;43.40;21.27;;;;;;;4.76;86.62;96947.22;5019502;28;20447;-87
2021/03/23 05:11:41;;;;;;;46.63;22.50;;;;;;;4.65;87.42;96943.81;5019818;28;20436;-88
2021/03/23 05:14:09;;;;;;;52.13;22.77;;;;;;;4.62;87.81;96948.19;5021036;28;20819;-86
2021/03/23 05:16:35;;;;;;;45.70;21.67;;;;;;;4.71;87.19;96953.28;5019333;28;20455;-87
2021/03/23 05:19:02;;;;;;;44.53;20.80;;;;;;;4.47;88.71;96944.28;5018442;28;21032;-87
2021/03/23 05:21:28;;;;;;;41.50;19.97;;;;;;;4.56;88.81;96954.75;5018847;28;20456;-87
2021/03/23 05:23:57;;;;;;;48.77;21.87;;;;;;;4.65;88.24;96957.16;5018843;28;20433;-87
2021/03/23 05:26:23;;;;;;;54.07;23.53;;;;;;;4.61;88.42;96946.72;5018670;28;20423;-86
2021/03/23 05:28:49;;;;;;;45.40;22.20;;;;;;;4.75;87.86;96943.09;5018861;28;20487;-87
2021/03/23 05:31:16;;;;;;;51.33;22.70;;;;;;;4.67;87.88;96949.38;5019190;28;20452;-87
2021/03/23 05:33:43;;;;;;;52.33;24.20;;;;;;;4.51;88.59;96950.13;5018822;28;20470;-87
2021/03/23 05:36:10;;;;;;;49.37;22.63;;;;;;;4.45;89.04;96949.41;5019050;28;21056;-87
2021/03/23 05:38:36;;;;;;;43.13;20.23;;;;;;;4.43;89.54;96957.16;5018310;28;20991;-87
2021/03/23 05:41:05;;;;;;;50.10;22.73;;;;;;;4.67;88.91;96952.06;5017830;28;20535;-86
2021/03/23 05:43:52;;;;;;;53.43;24.57;;;;;;;4.74;87.96;96957.66;5019284;28;20543;-86
2021/03/23 05:46:28;;;;;;;46.93;21.77;;;;;;;4.77;87.52;96961.31;5019330;28;20409;-86
2021/03/23 05:49:22;;;;;;;43.60;22.33;;;;;;;4.78;87.58;96960.09;5018538;28;20514;-87
2021/03/23 05:51:55;;;;;;;47.90;22.80;;;;;;;4.71;88.27;96961.31;5018000;28;20460;-87
2021/03/23 05:54:25;;;;;;;48.90;21.63;;;;;;;4.69;88.02;96963.00;5017381;28;20499;-87
2021/03/23 05:56:54;;;;;;;51.33;23.73;;;;;;;4.64;88.56;96969.06;5019734;28;20467;-86
2021/03/23 05:59:33;;;;;;;49.10;21.77;;;;;;;4.67;88.56;96960.81;5019209;28;20551;-86
2021/03/23 06:02:07;;;;;;;45.97;23.03;;;;;;;4.56;88.54;96968.09;5017844;28;20438;-87
2021/03/23 06:04:43;;;;;;;50.80;25.27;;;;;;;4.45;89.17;96968.81;5018420;28;20431;-87
2021/03/23 06:07:13;;;;;;;49.23;23.60;;;;;;;4.48;89.69;96969.81;5017680;28;20399;-86
2021/03/23 06:09:40;;;;;;;50.67;22.70;;;;;;;4.40;90.19;96974.16;5018281;28;20988;-86
2021/03/23 06:12:14;;;;;;;51.80;23.83;;;;;;;4.44;90.08;96974.66;5017662;28;21003;-87
2021/03/23 06:14:46;;;;;;;51.83;22.93;;;;;;;4.61;89.27;96975.38;5018099;28;20838;-87
2021/03/23 06:17:25;;;;;;;56.03;23.10;;;;;;;4.66;88.86;96983.44;5018139;28;20411;-84
2021/03/23 06:20:02;;;;;;;48.07;23.03;;;;;;;4.58;89.22;96979.75;5018497;28;20430;-87
2021/03/23 06:22:36;;;;;;;50.87;21.73;;;;;;;4.75;88.80;96983.19;5020196;28;20443;-87
2021/03/23 06:25:12;;;;;;;48.93;22.43;;;;;;;4.77;87.98;96988.03;5020265;28;20492;-87
2021/03/23 06:27:42;;;;;;;42.87;20.60;;;;;;;4.69;88.74;96987.81;5018165;28;20546;-88
2021/03/23 06:30:40;;;;;;;52.73;21.80;;;;;;;4.74;88.36;96991.69;5017860;28;20555;-87
2021/03/23 06:33:10;;;;;;;44.70;21.27;;;;;;;4.68;87.64;96997.03;5018771;28;20622;-87
2021/03/23 06:35:40;;;;;;;48.93;23.10;;;;;;;4.61;88.77;96999.44;5017552;28;20452;-87
2021/03/23 06:38:18;;;;;;;47.73;20.33;;;;;;;4.60;88.75;97004.06;5017702;28;20468;-88
2021/03/23 06:41:28;;;;;;;64.30;23.73;;;;;;;4.64;88.86;97004.53;5017743;28;20837;-85
2021/03/23 06:43:55;;;;;;;47.20;22.60;;;;;;;4.85;88.20;97008.44;5001725;28;20460;-85
2021/03/23 06:46:28;;;;;;;44.07;20.63;;;;;;;4.93;87.91;97008.69;5017695;28;20455;-86
2021/03/23 06:49:26;;;;;;;47.10;21.37;;;;;;;5.15;86.79;97005.28;5017297;28;20917;-85
2021/03/23 06:52:18;;;;;;;51.13;22.23;;;;;;;5.14;85.67;97017.19;5009635;28;20444;-84
2021/03/23 06:55:04;;;;;;;49.13;22.73;;;;;;;4.90;86.53;97015.03;5018705;28;20878;-84
2021/03/23 06:57:36;;;;;;;53.20;21.27;;;;;;;5.01;86.18;97009.66;5026207;28;20502;-85
2021/03/23 07:00:08;;;;;;;48.40;22.27;;;;;;;4.96;86.54;97018.44;5037358;28;20410;-84
2021/03/23 07:02:36;;;;;;;52.10;23.97;;;;;;;5.06;86.95;97016.25;5037065;28;20414;-84
2021/03/23 07:05:32;;;;;;;45.93;23.33;;;;;;;5.15;85.64;97018.66;5037421;28;20498;-85
2021/03/23 07:08:01;;;;;;;51.23;22.00;;;;;;;5.05;86.11;97018.19;5039264;28;20463;-88
2021/03/23 07:10:30;;;;;;;52.87;24.37;;;;;;;5.11;85.63;97021.59;5040422;28;20553;-88
2021/03/23 07:12:58;;;;;;;49.37;24.13;;;;;;;5.19;85.60;97019.91;5051273;28;20462;-92
2021/03/23 07:15:26;;;;;;;46.93;22.33;;;;;;;5.21;85.82;97024.75;5057609;28;20495;-92
2021/03/23 07:17:55;;;;;;;47.33;21.83;;;;;;;5.35;85.09;97027.19;5056977;28;20444;-91
2021/03/23 07:20:37;;;;;;;52.27;23.53;;;;;;;5.38;84.56;97030.81;5057679;28;20406;-91
2021/03/23 07:23:27;;;;;;;53.70;22.83;;;;;;;5.39;84.69;97042.97;5040736;28;20429;-86
2021/03/23 07:25:54;;;;;;;48.90;22.03;;;;;;;5.43;84.38;97040.78;5039296;28;20578;-87
2021/03/23 07:28:27;;;;;;;42.93;20.60;;;;;;;5.31;84.92;97042.75;5037458;28;20475;-86
2021/03/23 07:31:06;;;;;;;46.70;24.67;;;;;;;5.28;85.13;97043.72;5037597;28;20405;-86
2021/03/23 07:33:45;;;;;;;51.30;21.80;;;;;;;5.25;85.60;97042.03;5044196;28;20475;-86
2021/03/23 07:36:14;;;;;;;54.87;22.67;;;;;;;5.28;84.96;97042.97;5044854;28;20435;-89
2021/03/23 07:38:46;;;;;;;45.97;21.97;;;;;;;5.23;84.99;97043.72;5042480;28;20570;-87
2021/03/23 07:41:21;;;;;;;48.27;22.20;;;;;;;5.35;85.09;97039.81;5042631;28;20698;-85
2021/03/23 07:43:52;;;;;;;44.93;22.63;;;;;;;5.50;84.13;97051.00;5042758;28;20476;-89
2021/03/23 07:46:25;;;;;;;60.70;24.87;;;;;;;5.56;83.79;97046.38;5047582;28;20446;-91
2021/03/23 07:48:59;;;;;;;46.83;22.97;;;;;;;5.64;83.72;97047.31;5045733;28;20465;-89
2021/03/23 07:51:32;;;;;;;44.40;21.23;;;;;;;5.68;83.46;97057.78;5046313;28;20422;-91
2021/03/23 07:54:20;;;;;;;47.70;20.80;;;;;;;5.58;83.13;97051.22;5045747;28;20441;-89
2021/03/23 07:57:22;;;;;;;54.90;24.30;;;;;;;5.67;83.75;97049.00;5058508;28;20416;-92
2021/03/23 08:00:01;;;;;;;53.00;24.83;;;;;;;5.73;82.69;97057.06;5021129;28;20440;-94
2021/03/23 08:02:55;;;;;;;49.77;23.30;;;;;;;5.91;82.19;97053.88;5060603;28;20477;-92
2021/03/23 08:05:32;;;;;;;48.60;22.70;;;;;;;6.14;81.56;97060.59;5052521;28;20846;-89
2021/03/23 08:08:15;;;;;;;59.23;24.13;;;;;;;6.37;80.22;97061.25;5045000;28;20455;-91
2021/03/23 08:10:49;;;;;;;51.47;21.60;;;;;;;6.13;80.28;97058.41;5045593;28;20473;-91
2021/03/23 08:13:52;;;;;;;49.27;23.53;;;;;;;5.94;81.19;97063.59;5045301;28;20406;-90
2021/03/23 08:16:45;;;;;;;49.20;22.83;;;;;;;6.02;81.09;97056.50;5044437;28;20483;-90
2021/03/23 08:19:35;;;;;;;51.80;23.17;;;;;;;6.05;81.25;97062.81;5045297;28;20542;-91
2021/03/23 08:22:18;;;;;;;45.17;22.27;;;;;;;6.12;80.75;97063.03;5043802;28;20891;-91
2021/03/23 08:24:55;;;;;;;51.77;21.10;;;;;;;6.27;80.68;97065.41;5044583;28;20810;-92
2021/03/23 08:27:55;;;;;;;43.63;20.77;;;;;;;6.28;80.26;97064.22;5046111;28;20417;-93
2021/03/23 08:30:34;;;;;;;46.07;20.73;;;;;;;6.27;80.02;97057.38;5044879;28;20467;-91
2021/03/23 08:33:07;;;;;;;45.60;22.40;;;;;;;6.43;79.35;97060.00;5043602;28;20428;-90
2021/03/23 08:35:52;;;;;;;47.37;22.43;;;;;;;6.82;78.31;97065.16;5045161;28;20522;-91
2021/03/23 08:38:34;;;;;;;44.83;22.10;;;;;;;6.89;77.16;97063.91;5046131;28;20456;-90
2021/03/23 08:41:09;;;;;;;47.57;21.30;;;;;;;6.81;77.38;97066.38;5045264;28;20422;-91
2021/03/23 08:43:39;;;;;;;50.33;20.80;;;;;;;6.97;76.49;97062.13;5044225;28;20435;-91
2021/03/23 08:46:09;;;;;;;49.23;22.00;;;;;;;6.89;76.69;97069.28;5042036;28;20486;-90
2021/03/23 08:48:40;;;;;;;42.77;20.90;;;;;;;6.85;76.74;97064.16;5033935;28;20474;-93
2021/03/23 08:51:09;;;;;;;46.23;22.47;;;;;;;7.03;76.61;97068.19;5024357;28;20438;-92
2021/03/23 08:53:51;;;;;;;46.73;21.93;;;;;;;7.04;76.15;97082.34;5023872;28;20516;-92
2021/03/23 08:57:02;;;;;;;37.37;18.30;;;;;;;7.16;74.82;97076.38;5025736;28;20529;-92
2021/03/23 08:59:53;;;;;;;38.30;20.20;;;;;;;6.99;75.06;97083.81;5016853;28;20439;-87
2021/03/23 09:02:49;;;;;;;40.97;18.33;;;;;;;7.08;75.15;97080.13;5020462;28;20448;-87
2021/03/23 09:05:38;;;;;;;30.87;16.70;;;;;;;7.12;73.57;97091.28;5021142;28;20530;-89
2021/03/23 09:08:36;;;;;;;36.17;19.07;;;;;;;6.96;74.43;97082.88;5021117;28;20483;-90
2021/03/23 09:11:07;;;;;;;34.87;17.00;;;;;;;6.94;74.97;97082.63;5023860;28;20456;-92
2021/03/23 09:14:16;;;;;;;26.80;14.10;;;;;;;7.14;73.11;97089.56;5022395;28;20418;-90
2021/03/23 09:17:05;;;;;;;28.63;14.90;;;;;;;7.24;71.66;97090.72;5022610;28;20407;-90
2021/03/23 09:19:36;;;;;;;29.80;14.37;;;;;;;7.09;72.61;97082.28;5019669;28;20492;-89
2021/03/23 09:22:08;;;;;;;35.90;16.70;;;;;;;6.98;72.62;97088.44;5018462;28;20428;-87
2021/03/23 09:24:36;;;;;;;35.43;16.40;;;;;;;7.05;72.77;97083.81;5021529;28;20819;-90
2021/03/23 09:27:05;;;;;;;28.83;14.50;;;;;;;7.34;72.29;97086.50;5022956;28;20413;-89
2021/03/23 09:29:44;;;;;;;24.03;12.00;;;;;;;7.23;69.18;97083.19;5025666;28;20575;-92
2021/03/23 09:32:16;;;;;;;18.70;9.97;;;;;;;7.09;68.84;97082.28;5026107;28;20436;-94
2021/03/23 09:35:16;;;;;;;17.73;9.00;;;;;;;7.17;67.02;97075.19;5025108;28;20516;-92
2021/03/23 09:37:47;;;;;;;15.30;9.67;;;;;;;7.14;67.15;97078.81;5023608;28;20442;-91
2021/03/23 09:43:43;;;;;;;21.50;11.57;;;;;;;7.32;67.03;97070.19;4945080;29;20492;-89
2021/03/23 09:46:16;;;;;;;25.43;10.73;;;;;;;7.40;67.21;97067.66;5012929;28;20506;-88
2021/03/23 09:48:55;;;;;;;23.77;11.70;;;;;;;7.59;67.10;97068.47;5022146;28;20562;-90
2021/03/23 09:51:39;;;;;;;24.10;11.90;;;;;;;7.83;66.83;97075.84;5024866;28;20432;-91
2021/03/23 09:54:13;;;;;;;21.53;12.30;;;;;;;7.59;67.48;97070.44;5032825;28;20437;-90
2021/03/23 09:56:39;;;;;;;19.93;11.13;;;;;;;7.78;66.15;97065.84;5043511;28;20438;-91
2021/03/23 09:59:07;;;;;;;15.63;8.70;;;;;;;7.61;64.57;97065.28;5043218;28;20460;-88
2021/03/23 10:01:35;;;;;;;13.50;8.30;;;;;;;7.82;63.01;97064.34;5044093;28;20429;-90
2021/03/23 10:04:04;;;;;;;19.63;8.00;;;;;;;7.54;63.76;97069.25;5042025;28;20457;-89
2021/03/23 10:06:46;;;;;;;17.00;8.83;;;;;;;7.36;64.52;97064.53;5044730;28;20410;-86
2021/03/23 10:09:12;;;;;;;20.33;8.53;;;;;;;7.53;63.74;97063.16;5042243;28;20458;-86
2021/03/23 10:11:42;;;;;;;16.90;8.70;;;;;;;7.34;63.59;97056.97;5053643;28;20431;-93
2021/03/23 10:14:11;;;;;;;17.93;9.67;;;;;;;7.38;63.80;97060.13;5057969;28;20475;-94
2021/03/23 10:16:40;;;;;;;23.17;9.83;;;;;;;7.29;64.91;97057.03;5057845;28;20527;-92
2021/03/23 10:19:12;;;;;;;22.43;8.83;;;;;;;7.44;64.56;97058.13;5057959;28;20452;-95
2021/03/23 10:21:44;;;;;;;16.37;9.03;;;;;;;7.30;64.14;97059.19;5047865;28;20418;-87
2021/03/23 10:24:15;;;;;;;16.00;8.20;;;;;;;7.42;62.73;97054.47;5052585;28;20519;-88
2021/03/23 10:26:44;;;;;;;16.07;7.93;;;;;;;7.30;61.97;97061.88;5054508;28;20405;-91
2021/03/23 10:29:18;;;;;;;13.73;7.40;;;;;;;7.35;62.76;97057.72;5048578;28;20502;-89
2021/03/23 10:31:48;;;;;;;11.33;7.10;;;;;;;7.53;60.68;97057.78;5043821;28;20739;-87
2021/03/23 10:34:20;;;;;;;20.30;7.90;;;;;;;7.23;61.73;97061.72;5043011;28;20459;-90
2021/03/23 10:36:52;;;;;;;15.63;7.40;;;;;;;7.27;62.08;97056.78;5042797;28;20418;-89
2021/03/23 10:39:47;;;;;;;14.33;7.00;;;;;;;7.30;61.82;97053.81;5041114;28;20438;-89
2021/03/23 10:42:17;;;;;;;11.63;6.03;;;;;;;7.12;61.54;97057.16;5041422;28;20505;-87
2021/03/23 10:44:44;;;;;;;12.63;6.97;;;;;;;7.30;60.87;97051.13;5040614;28;20442;-87
2021/03/23 10:47:17;;;;;;;13.87;6.83;;;;;;;7.47;61.85;97051.75;5042383;28;20438;-87
2021/03/23 10:49:44;;;;;;;12.27;6.50;;;;;;;7.63;61.61;97054.78;5041514;28;20511;-85
2021/03/23 10:52:27;;;;;;;8.20;5.10;;;;;;;7.71;59.83;97061.75;5042112;28;20498;-85
2021/03/23 10:55:26;;;;;;;12.57;6.83;;;;;;;7.88;60.36;97056.22;5042439;28;20430;-85
2021/03/23 10:58:15;;;;;;;19.80;9.53;;;;;;;7.69;59.87;97058.13;5044760;28;20481;-92
2021/03/23 11:00:42;;;;;;;13.67;7.73;;;;;;;7.65;59.78;97060.34;5045524;28;20418;-91
2021/03/23 11:03:14;;;;;;;16.93;7.80;;;;;;;7.35;60.93;97055.75;5049585;28;20454;-92
2021/03/23 11:05:47;;;;;;;11.43;7.27;;;;;;;7.57;61.24;97054.81;5047715;28;20447;-92
2021/03/23 11:08:15;;;;;;;12.47;7.10;;;;;;;7.73;60.42;97059.31;5044889;28;20446;-92
2021/03/23 11:10:43;;;;;;;12.90;7.37;;;;;;;7.89;60.60;97065.75;5044647;28;20540;-90
2021/03/23 11:13:10;;;;;;;11.50;6.00;;;;;;;8.00;59.95;97062.94;5044984;28;20432;-92
2021/03/23 11:15:39;;;;;;;9.57;5.60;;;;;;;8.22;59.25;97070.03;5042152;28;20418;-90
2021/03/23 11:18:11;;;;;;;11.70;6.20;;;;;;;8.32;58.60;97053.06;5047992;28;20471;-89
2021/03/23 11:20:39;;;;;;;15.40;8.13;;;;;;;8.25;58.17;97059.00;5047253;28;20426;-92
2021/03/23 11:23:31;;;;;;;22.47;8.87;;;;;;;7.77;59.29;97053.66;5047612;28;20464;-90
2021/03/23 11:25:57;;;;;;;17.60;7.33;;;;;;;7.50;59.89;97056.09;5043077;28;20431;-91
2021/03/23 11:28:24;;;;;;;19.20;8.67;;;;;;;7.87;59.84;97054.75;5043948;28;20947;-91
2021/03/23 11:30:51;;;;;;;15.00;7.23;;;;;;;7.98;59.00;97052.72;5044661;28;20475;-94
2021/03/23 11:33:17;;;;;;;21.23;9.40;;;;;;;8.08;59.33;97053.09;5047050;28;20429;-89
2021/03/23 11:35:45;;;;;;;19.83;9.43;;;;;;;7.83;61.19;97049.66;5021938;28;20493;-89
2021/03/23 11:38:11;;;;;;;20.10;9.97;;;;;;;7.67;62.01;97050.59;5022741;28;20467;-88
2021/03/23 11:40:39;;;;;;;25.47;9.77;;;;;;;7.75;62.24;97048.06;5027077;28;20440;-91
2021/03/23 11:43:06;;;;;;;20.77;9.63;;;;;;;7.77;61.79;97049.00;5025858;28;20438;-90
2021/03/23 11:45:38;;;;;;;16.33;9.70;;;;;;;7.72;61.49;97049.78;5021897;28;20422;-91
2021/03/23 11:48:10;;;;;;;19.00;9.23;;;;;;;7.49;61.84;97045.84;5023719;28;20455;-93
2021/03/23 11:50:37;;;;;;;13.87;8.00;;;;;;;7.52;62.11;97045.59;5033020;28;20531;-87
2021/03/23 11:53:07;;;;;;;22.40;10.03;;;;;;;7.62;61.97;97047.94;5029298;28;20469;-87